Waiouru, New Zealand
Current Conditions -  °F | °C
As of 11:00 AM on Thursday 23 Oct 2014 (Local Time) from NZWN Reporting Station
Overcast Overcast  
Wind Chill: 59°   Ceiling: 2200
Heat Index: 59°   Visibility: 6mi
Dew Point: 48°   Wind: 30mph
Humidity: 67%   Direction: 350°N
Pressure: 29.88"   Gusts: NA
Location:  39.48°S, 175.67°E
Report Text: NZWN 222300Z AUTO 35026KT 9999 OVC022/// 15/09 Q1012 NOSIG
Loading
Personal Weather Stations






























Interactive Weather Map
Tropical Storm Tracking
New forecast layout! Learn more

10-Day Weather Forecast

Advertisements
Track Severe Weather on mobile